Portada
METAR-TAF:

METAR-TAF

Aeropuertos :

Aeropuerto Internacional Ivato

Antananarivo, Madagascar

latitud: 18-48S, longitud: 047-29E, altitud: 1279 m

Observación

El informe se hizo hace 11 minutos, a las 10:30 UTC
Viento 13 kt del este-sureste, variando entre este y sur-sureste
Temperatura 21°C
Humedad 69%
Presión 1024 hPa
Visibilidad 10 km o más
Nubes dispersas a una altura de 2000 ft
chaparrones en las proximidades

METAR: FMMI 231030Z 12013KT 090V150 9999 VCSH SCT020 21/15 Q1024 NOSIG

Hora: 13:41 (10:41 UTC)

Pronóstico

El informe se hizo hace 5 horas y 41 minutos, a las 05:00 UTC
Pronóstico válido del 23 a las 06 UTC al 24 a las 12 UTC
Viento 9 kt del sureste
Visibilidad 10 km o más
Escasas nubes a una altura de 1700 ft
Nubes dispersas a una altura de 2000 ft

TAF: FMMI 230500Z 2306/2412 14009KT 9999 FEW017 SCT020

Observaciones y pronósticos meteorológicos de más de 4000 aeropuertos (mensajes METAR y TAF).

Los puntos amarillos y rojos representan las estaciones disponibles.

Ponga el ratón en el punto deseado para ver el nombre de la estación.

Haga clic para ver las observaciones y los pronósticos meteorológicos.

Para cambiar el mapa : haga clic en los botones verdes con una cruz de color negro para hacer un zoom, en el botón verde con un guión para alejar o en las flechas verdes para mapas adyacentes.


METAR-TAF: